sensor_id;sensor_type;location;lat;lon;timestamp;P1;durP1;ratioP1;P2;durP2;ratioP2
81952;SDS011;71454;55.476;14.282;2023-12-14T00:00:16;3.63;;;1.20;;
81952;SDS011;71454;55.476;14.282;2023-12-14T00:02:43;5.88;;;1.77;;
81952;SDS011;71454;55.476;14.282;2023-12-14T00:05:08;5.05;;;1.45;;
81952;SDS011;71454;55.476;14.282;2023-12-14T00:07:33;6.55;;;1.67;;
81952;SDS011;71454;55.476;14.282;2023-12-14T00:09:59;5.85;;;1.27;;
81952;SDS011;71454;55.476;14.282;2023-12-14T00:12:24;3.92;;;1.10;;
81952;SDS011;71454;55.476;14.282;2023-12-14T00:14:49;4.18;;;1.27;;
81952;SDS011;71454;55.476;14.282;2023-12-14T00:17:15;8.27;;;1.40;;
81952;SDS011;71454;55.476;14.282;2023-12-14T00:19:40;4.73;;;1.40;;
81952;SDS011;71454;55.476;14.282;2023-12-14T00:22:05;7.30;;;1.90;;
81952;SDS011;71454;55.476;14.282;2023-12-14T00:24:31;4.83;;;1.30;;
81952;SDS011;71454;55.476;14.282;2023-12-14T00:26:56;5.40;;;1.70;;
81952;SDS011;71454;55.476;14.282;2023-12-14T00:29:21;5.73;;;1.57;;
81952;SDS011;71454;55.476;14.282;2023-12-14T00:31:46;4.72;;;1.27;;
81952;SDS011;71454;55.476;14.282;2023-12-14T00:34:12;4.70;;;1.20;;
81952;SDS011;71454;55.476;14.282;2023-12-14T00:36:37;4.30;;;1.20;;
81952;SDS011;71454;55.476;14.282;2023-12-14T00:39:03;5.53;;;1.52;;
81952;SDS011;71454;55.476;14.282;2023-12-14T00:41:29;6.32;;;1.40;;
81952;SDS011;71454;55.476;14.282;2023-12-14T00:43:54;7.18;;;1.50;;
81952;SDS011;71454;55.476;14.282;2023-12-14T00:46:19;4.97;;;1.40;;
81952;SDS011;71454;55.476;14.282;2023-12-14T00:48:44;5.00;;;1.27;;
81952;SDS011;71454;55.476;14.282;2023-12-14T00:51:10;4.30;;;1.30;;
81952;SDS011;71454;55.476;14.282;2023-12-14T00:53:35;4.80;;;1.35;;
81952;SDS011;71454;55.476;14.282;2023-12-14T00:56:00;3.72;;;1.15;;
81952;SDS011;71454;55.476;14.282;2023-12-14T00:58:26;5.70;;;1.27;;
81952;SDS011;71454;55.476;14.282;2023-12-14T01:00:51;5.85;;;1.45;;
81952;SDS011;71454;55.476;14.282;2023-12-14T01:03:19;5.78;;;1.20;;
81952;SDS011;71454;55.476;14.282;2023-12-14T01:05:44;3.80;;;1.20;;
81952;SDS011;71454;55.476;14.282;2023-12-14T01:08:09;4.03;;;1.23;;
81952;SDS011;71454;55.476;14.282;2023-12-14T01:10:35;3.85;;;1.42;;
81952;SDS011;71454;55.476;14.282;2023-12-14T01:13:00;4.25;;;1.00;;
81952;SDS011;71454;55.476;14.282;2023-12-14T01:15:25;4.40;;;1.20;;
81952;SDS011;71454;55.476;14.282;2023-12-14T01:17:51;3.80;;;1.20;;
81952;SDS011;71454;55.476;14.282;2023-12-14T01:20:16;4.10;;;1.00;;
81952;SDS011;71454;55.476;14.282;2023-12-14T01:22:41;4.03;;;1.20;;
81952;SDS011;71454;55.476;14.282;2023-12-14T01:25:07;5.13;;;1.03;;
81952;SDS011;71454;55.476;14.282;2023-12-14T01:27:32;4.72;;;1.23;;
81952;SDS011;71454;55.476;14.282;2023-12-14T01:29:57;3.60;;;1.03;;
81952;SDS011;71454;55.476;14.282;2023-12-14T01:32:23;4.57;;;0.87;;
81952;SDS011;71454;55.476;14.282;2023-12-14T01:34:48;6.30;;;1.10;;
81952;SDS011;71454;55.476;14.282;2023-12-14T01:37:13;3.53;;;1.63;;
81952;SDS011;71454;55.476;14.282;2023-12-14T01:39:38;3.50;;;1.10;;
81952;SDS011;71454;55.476;14.282;2023-12-14T01:42:04;3.40;;;1.02;;
81952;SDS011;71454;55.476;14.282;2023-12-14T01:44:29;3.85;;;1.17;;
81952;SDS011;71454;55.476;14.282;2023-12-14T01:46:54;5.97;;;1.63;;
81952;SDS011;71454;55.476;14.282;2023-12-14T01:49:20;4.75;;;1.70;;
81952;SDS011;71454;55.476;14.282;2023-12-14T01:51:46;5.13;;;1.25;;
81952;SDS011;71454;55.476;14.282;2023-12-14T01:54:11;3.50;;;1.00;;
81952;SDS011;71454;55.476;14.282;2023-12-14T01:56:36;4.40;;;1.30;;
81952;SDS011;71454;55.476;14.282;2023-12-14T01:59:01;4.30;;;1.20;;
81952;SDS011;71454;55.476;14.282;2023-12-14T02:01:45;3.20;;;1.00;;
81952;SDS011;71454;55.476;14.282;2023-12-14T02:04:12;5.03;;;1.10;;
81952;SDS011;71454;55.476;14.282;2023-12-14T02:06:37;5.30;;;1.10;;
81952;SDS011;71454;55.476;14.282;2023-12-14T02:09:03;4.05;;;1.00;;
81952;SDS011;71454;55.476;14.282;2023-12-14T02:11:28;4.07;;;1.20;;
81952;SDS011;71454;55.476;14.282;2023-12-14T02:13:53;5.05;;;1.40;;
81952;SDS011;71454;55.476;14.282;2023-12-14T02:16:18;5.40;;;1.08;;
81952;SDS011;71454;55.476;14.282;2023-12-14T02:18:44;5.77;;;1.37;;
81952;SDS011;71454;55.476;14.282;2023-12-14T02:21:09;5.53;;;1.27;;
81952;SDS011;71454;55.476;14.282;2023-12-14T02:23:35;3.75;;;1.00;;
81952;SDS011;71454;55.476;14.282;2023-12-14T02:26:00;4.70;;;1.00;;
81952;SDS011;71454;55.476;14.282;2023-12-14T02:28:25;7.13;;;1.58;;
81952;SDS011;71454;55.476;14.282;2023-12-14T02:30:51;4.00;;;1.33;;
81952;SDS011;71454;55.476;14.282;2023-12-14T02:33:16;6.53;;;1.40;;
81952;SDS011;71454;55.476;14.282;2023-12-14T02:35:42;6.70;;;1.27;;
81952;SDS011;71454;55.476;14.282;2023-12-14T02:38:07;4.20;;;1.20;;
81952;SDS011;71454;55.476;14.282;2023-12-14T02:40:33;3.07;;;1.10;;
81952;SDS011;71454;55.476;14.282;2023-12-14T02:42:58;4.63;;;1.40;;
81952;SDS011;71454;55.476;14.282;2023-12-14T02:45:23;3.80;;;1.10;;
81952;SDS011;71454;55.476;14.282;2023-12-14T02:47:48;4.43;;;1.10;;
81952;SDS011;71454;55.476;14.282;2023-12-14T02:50:15;3.60;;;1.23;;
81952;SDS011;71454;55.476;14.282;2023-12-14T02:52:40;3.20;;;0.98;;
81952;SDS011;71454;55.476;14.282;2023-12-14T02:55:05;4.30;;;1.10;;
81952;SDS011;71454;55.476;14.282;2023-12-14T02:57:31;4.72;;;1.27;;
81952;SDS011;71454;55.476;14.282;2023-12-14T02:59:56;4.27;;;0.93;;
81952;SDS011;71454;55.476;14.282;2023-12-14T03:02:21;3.50;;;1.27;;
81952;SDS011;71454;55.476;14.282;2023-12-14T03:04:47;3.50;;;1.20;;
81952;SDS011;71454;55.476;14.282;2023-12-14T03:07:12;5.33;;;1.30;;
81952;SDS011;71454;55.476;14.282;2023-12-14T03:09:40;4.95;;;1.20;;
81952;SDS011;71454;55.476;14.282;2023-12-14T03:12:09;7.20;;;1.10;;
81952;SDS011;71454;55.476;14.282;2023-12-14T03:14:35;5.57;;;1.10;;
81952;SDS011;71454;55.476;14.282;2023-12-14T03:17:00;5.90;;;1.17;;
81952;SDS011;71454;55.476;14.282;2023-12-14T03:19:26;3.85;;;1.48;;
81952;SDS011;71454;55.476;14.282;2023-12-14T03:21:51;5.40;;;1.30;;
81952;SDS011;71454;55.476;14.282;2023-12-14T03:24:16;4.30;;;1.00;;
81952;SDS011;71454;55.476;14.282;2023-12-14T03:26:41;3.92;;;1.10;;
81952;SDS011;71454;55.476;14.282;2023-12-14T03:29:07;3.50;;;1.05;;
81952;SDS011;71454;55.476;14.282;2023-12-14T03:31:33;3.65;;;1.23;;
81952;SDS011;71454;55.476;14.282;2023-12-14T03:33:58;4.55;;;1.13;;
81952;SDS011;71454;55.476;14.282;2023-12-14T03:36:24;3.50;;;1.10;;
81952;SDS011;71454;55.476;14.282;2023-12-14T03:38:51;2.83;;;1.00;;
81952;SDS011;71454;55.476;14.282;2023-12-14T03:41:16;6.05;;;1.20;;
81952;SDS011;71454;55.476;14.282;2023-12-14T03:43:42;3.77;;;1.07;;
81952;SDS011;71454;55.476;14.282;2023-12-14T03:46:07;2.72;;;0.98;;
81952;SDS011;71454;55.476;14.282;2023-12-14T03:48:33;5.68;;;1.35;;
81952;SDS011;71454;55.476;14.282;2023-12-14T03:51:01;2.78;;;0.90;;
81952;SDS011;71454;55.476;14.282;2023-12-14T03:53:27;4.35;;;1.30;;
81952;SDS011;71454;55.476;14.282;2023-12-14T03:55:52;2.78;;;1.00;;
81952;SDS011;71454;55.476;14.282;2023-12-14T03:58:17;3.07;;;1.17;;
81952;SDS011;71454;55.476;14.282;2023-12-14T04:00:42;4.30;;;1.10;;
81952;SDS011;71454;55.476;14.282;2023-12-14T04:03:08;2.30;;;0.85;;
81952;SDS011;71454;55.476;14.282;2023-12-14T04:05:33;3.90;;;1.05;;
81952;SDS011;71454;55.476;14.282;2023-12-14T04:08:00;4.30;;;1.10;;
81952;SDS011;71454;55.476;14.282;2023-12-14T04:10:25;3.53;;;1.10;;
81952;SDS011;71454;55.476;14.282;2023-12-14T04:12:50;2.87;;;1.00;;
81952;SDS011;71454;55.476;14.282;2023-12-14T04:15:16;6.10;;;1.30;;
81952;SDS011;71454;55.476;14.282;2023-12-14T04:17:41;3.50;;;1.10;;
81952;SDS011;71454;55.476;14.282;2023-12-14T04:20:06;3.55;;;1.00;;
81952;SDS011;71454;55.476;14.282;2023-12-14T04:22:32;3.83;;;1.00;;
81952;SDS011;71454;55.476;14.282;2023-12-14T04:24:57;3.90;;;1.00;;
81952;SDS011;71454;55.476;14.282;2023-12-14T04:27:23;3.70;;;1.10;;
81952;SDS011;71454;55.476;14.282;2023-12-14T04:29:52;3.85;;;1.15;;
81952;SDS011;71454;55.476;14.282;2023-12-14T04:32:17;5.75;;;1.10;;
81952;SDS011;71454;55.476;14.282;2023-12-14T04:34:42;4.43;;;1.07;;
81952;SDS011;71454;55.476;14.282;2023-12-14T04:37:08;3.70;;;1.20;;
81952;SDS011;71454;55.476;14.282;2023-12-14T04:39:33;3.10;;;0.83;;
81952;SDS011;71454;55.476;14.282;2023-12-14T04:41:58;2.73;;;0.83;;
81952;SDS011;71454;55.476;14.282;2023-12-14T04:44:23;4.63;;;1.20;;
81952;SDS011;71454;55.476;14.282;2023-12-14T04:46:49;11.27;;;3.17;;
81952;SDS011;71454;55.476;14.282;2023-12-14T04:49:14;10.32;;;3.45;;
81952;SDS011;71454;55.476;14.282;2023-12-14T04:51:40;4.20;;;1.20;;
81952;SDS011;71454;55.476;14.282;2023-12-14T04:54:05;9.13;;;3.03;;
81952;SDS011;71454;55.476;14.282;2023-12-14T04:56:30;9.05;;;2.63;;
81952;SDS011;71454;55.476;14.282;2023-12-14T04:58:56;4.97;;;1.58;;
81952;SDS011;71454;55.476;14.282;2023-12-14T05:01:21;5.03;;;1.23;;
81952;SDS011;71454;55.476;14.282;2023-12-14T05:03:47;4.35;;;1.20;;
81952;SDS011;71454;55.476;14.282;2023-12-14T05:06:12;3.03;;;1.17;;
81952;SDS011;71454;55.476;14.282;2023-12-14T05:08:37;6.10;;;1.30;;
81952;SDS011;71454;55.476;14.282;2023-12-14T05:11:03;3.47;;;1.10;;
81952;SDS011;71454;55.476;14.282;2023-12-14T05:13:28;4.28;;;0.95;;
81952;SDS011;71454;55.476;14.282;2023-12-14T05:15:53;4.07;;;1.00;;
81952;SDS011;71454;55.476;14.282;2023-12-14T05:18:19;4.40;;;1.37;;
81952;SDS011;71454;55.476;14.282;2023-12-14T05:20:44;4.23;;;1.20;;
81952;SDS011;71454;55.476;14.282;2023-12-14T05:23:11;4.30;;;1.27;;
81952;SDS011;71454;55.476;14.282;2023-12-14T05:25:36;3.45;;;1.10;;
81952;SDS011;71454;55.476;14.282;2023-12-14T05:28:01;3.58;;;1.02;;
81952;SDS011;71454;55.476;14.282;2023-12-14T05:30:27;3.50;;;1.10;;
81952;SDS011;71454;55.476;14.282;2023-12-14T05:32:52;2.57;;;1.10;;
81952;SDS011;71454;55.476;14.282;2023-12-14T05:35:17;3.13;;;0.97;;
81952;SDS011;71454;55.476;14.282;2023-12-14T05:37:43;4.20;;;1.30;;
81952;SDS011;71454;55.476;14.282;2023-12-14T05:40:09;3.67;;;1.15;;
81952;SDS011;71454;55.476;14.282;2023-12-14T05:42:34;5.75;;;1.25;;
81952;SDS011;71454;55.476;14.282;2023-12-14T05:45:00;4.45;;;1.25;;
81952;SDS011;71454;55.476;14.282;2023-12-14T05:47:28;3.27;;;1.20;;
81952;SDS011;71454;55.476;14.282;2023-12-14T05:49:55;4.95;;;1.45;;
81952;SDS011;71454;55.476;14.282;2023-12-14T05:52:20;7.17;;;1.80;;
81952;SDS011;71454;55.476;14.282;2023-12-14T05:54:45;6.33;;;1.93;;
81952;SDS011;71454;55.476;14.282;2023-12-14T05:57:11;5.63;;;1.80;;
81952;SDS011;71454;55.476;14.282;2023-12-14T05:59:38;6.70;;;1.95;;
81952;SDS011;71454;55.476;14.282;2023-12-14T06:02:03;5.65;;;1.40;;
81952;SDS011;71454;55.476;14.282;2023-12-14T06:04:29;7.55;;;2.28;;
81952;SDS011;71454;55.476;14.282;2023-12-14T06:06:54;4.40;;;1.40;;
81952;SDS011;71454;55.476;14.282;2023-12-14T06:09:19;5.70;;;1.80;;
81952;SDS011;71454;55.476;14.282;2023-12-14T06:11:49;3.25;;;1.20;;
81952;SDS011;71454;55.476;14.282;2023-12-14T06:14:15;5.45;;;1.45;;
81952;SDS011;71454;55.476;14.282;2023-12-14T06:16:41;4.10;;;1.15;;
81952;SDS011;71454;55.476;14.282;2023-12-14T06:19:06;6.63;;;1.42;;
81952;SDS011;71454;55.476;14.282;2023-12-14T06:21:31;4.33;;;1.30;;
81952;SDS011;71454;55.476;14.282;2023-12-14T06:23:57;4.00;;;1.02;;
81952;SDS011;71454;55.476;14.282;2023-12-14T06:26:24;3.67;;;1.30;;
81952;SDS011;71454;55.476;14.282;2023-12-14T06:28:49;4.82;;;1.45;;
81952;SDS011;71454;55.476;14.282;2023-12-14T06:31:15;4.32;;;1.33;;
81952;SDS011;71454;55.476;14.282;2023-12-14T06:33:40;3.88;;;1.30;;
81952;SDS011;71454;55.476;14.282;2023-12-14T06:36:06;3.53;;;1.10;;
81952;SDS011;71454;55.476;14.282;2023-12-14T06:38:32;4.85;;;1.42;;
81952;SDS011;71454;55.476;14.282;2023-12-14T06:40:57;6.45;;;1.55;;
81952;SDS011;71454;55.476;14.282;2023-12-14T06:43:23;4.43;;;1.30;;
81952;SDS011;71454;55.476;14.282;2023-12-14T06:45:48;4.75;;;1.50;;
81952;SDS011;71454;55.476;14.282;2023-12-14T06:48:13;3.40;;;1.15;;
81952;SDS011;71454;55.476;14.282;2023-12-14T06:50:38;5.35;;;1.30;;
81952;SDS011;71454;55.476;14.282;2023-12-14T06:53:04;3.87;;;1.20;;
81952;SDS011;71454;55.476;14.282;2023-12-14T06:55:29;6.00;;;1.42;;
81952;SDS011;71454;55.476;14.282;2023-12-14T06:57:54;5.60;;;1.40;;
81952;SDS011;71454;55.476;14.282;2023-12-14T07:00:20;5.50;;;1.55;;
81952;SDS011;71454;55.476;14.282;2023-12-14T07:02:45;4.50;;;1.30;;
81952;SDS011;71454;55.476;14.282;2023-12-14T07:05:10;4.23;;;1.43;;
81952;SDS011;71454;55.476;14.282;2023-12-14T07:07:36;5.00;;;1.30;;
81952;SDS011;71454;55.476;14.282;2023-12-14T07:10:01;5.72;;;1.50;;
81952;SDS011;71454;55.476;14.282;2023-12-14T07:12:26;4.38;;;1.13;;
81952;SDS011;71454;55.476;14.282;2023-12-14T07:14:52;4.27;;;1.20;;
81952;SDS011;71454;55.476;14.282;2023-12-14T07:17:17;5.27;;;1.60;;
81952;SDS011;71454;55.476;14.282;2023-12-14T07:19:42;3.97;;;1.30;;
81952;SDS011;71454;55.476;14.282;2023-12-14T07:22:07;5.27;;;1.30;;
81952;SDS011;71454;55.476;14.282;2023-12-14T07:24:33;4.70;;;1.60;;
81952;SDS011;71454;55.476;14.282;2023-12-14T07:26:58;3.15;;;1.08;;
81952;SDS011;71454;55.476;14.282;2023-12-14T07:29:23;5.97;;;1.30;;
81952;SDS011;71454;55.476;14.282;2023-12-14T07:31:48;5.73;;;1.50;;
81952;SDS011;71454;55.476;14.282;2023-12-14T07:34:14;4.28;;;1.27;;
81952;SDS011;71454;55.476;14.282;2023-12-14T07:36:39;4.10;;;1.40;;
81952;SDS011;71454;55.476;14.282;2023-12-14T07:39:04;5.15;;;1.55;;
81952;SDS011;71454;55.476;14.282;2023-12-14T07:41:31;3.92;;;1.40;;
81952;SDS011;71454;55.476;14.282;2023-12-14T07:43:57;5.72;;;2.20;;
81952;SDS011;71454;55.476;14.282;2023-12-14T07:46:23;4.88;;;1.88;;
81952;SDS011;71454;55.476;14.282;2023-12-14T07:48:48;5.03;;;1.55;;
81952;SDS011;71454;55.476;14.282;2023-12-14T07:51:14;5.13;;;1.73;;
81952;SDS011;71454;55.476;14.282;2023-12-14T07:53:39;6.28;;;1.63;;
81952;SDS011;71454;55.476;14.282;2023-12-14T07:56:06;4.90;;;1.75;;
81952;SDS011;71454;55.476;14.282;2023-12-14T07:58:31;4.40;;;1.67;;
81952;SDS011;71454;55.476;14.282;2023-12-14T08:00:56;4.97;;;1.77;;
81952;SDS011;71454;55.476;14.282;2023-12-14T08:03:22;4.53;;;1.47;;
81952;SDS011;71454;55.476;14.282;2023-12-14T08:05:47;4.43;;;1.52;;
81952;SDS011;71454;55.476;14.282;2023-12-14T08:08:12;5.28;;;1.40;;
81952;SDS011;71454;55.476;14.282;2023-12-14T08:10:37;5.75;;;1.83;;
81952;SDS011;71454;55.476;14.282;2023-12-14T08:13:03;6.63;;;2.53;;
81952;SDS011;71454;55.476;14.282;2023-12-14T08:15:28;6.15;;;2.40;;
81952;SDS011;71454;55.476;14.282;2023-12-14T08:17:55;6.72;;;2.60;;
81952;SDS011;71454;55.476;14.282;2023-12-14T08:20:20;6.43;;;2.25;;
81952;SDS011;71454;55.476;14.282;2023-12-14T08:22:46;6.03;;;2.42;;
81952;SDS011;71454;55.476;14.282;2023-12-14T08:25:11;6.45;;;2.42;;
81952;SDS011;71454;55.476;14.282;2023-12-14T08:27:38;6.05;;;2.50;;
81952;SDS011;71454;55.476;14.282;2023-12-14T08:30:04;9.93;;;4.00;;
81952;SDS011;71454;55.476;14.282;2023-12-14T08:32:30;7.07;;;2.45;;
81952;SDS011;71454;55.476;14.282;2023-12-14T08:34:55;6.95;;;3.03;;
81952;SDS011;71454;55.476;14.282;2023-12-14T08:37:20;6.70;;;2.37;;
81952;SDS011;71454;55.476;14.282;2023-12-14T08:39:46;5.45;;;1.48;;
81952;SDS011;71454;55.476;14.282;2023-12-14T08:42:11;6.03;;;2.20;;
81952;SDS011;71454;55.476;14.282;2023-12-14T08:44:38;5.65;;;1.77;;
81952;SDS011;71454;55.476;14.282;2023-12-14T08:47:04;5.80;;;1.80;;
81952;SDS011;71454;55.476;14.282;2023-12-14T08:49:30;5.55;;;1.80;;
81952;SDS011;71454;55.476;14.282;2023-12-14T08:51:55;6.03;;;1.70;;
81952;SDS011;71454;55.476;14.282;2023-12-14T08:54:21;5.65;;;1.90;;
81952;SDS011;71454;55.476;14.282;2023-12-14T08:56:46;5.50;;;1.83;;
81952;SDS011;71454;55.476;14.282;2023-12-14T08:59:11;5.43;;;1.73;;
81952;SDS011;71454;55.476;14.282;2023-12-14T09:01:36;5.93;;;1.70;;
81952;SDS011;71454;55.476;14.282;2023-12-14T09:04:02;5.28;;;1.75;;
81952;SDS011;71454;55.476;14.282;2023-12-14T09:06:27;5.65;;;1.83;;
81952;SDS011;71454;55.476;14.282;2023-12-14T09:08:52;4.45;;;1.80;;
81952;SDS011;71454;55.476;14.282;2023-12-14T09:11:17;4.90;;;1.42;;
81952;SDS011;71454;55.476;14.282;2023-12-14T09:13:43;4.80;;;1.60;;
81952;SDS011;71454;55.476;14.282;2023-12-14T09:16:08;5.43;;;1.50;;
81952;SDS011;71454;55.476;14.282;2023-12-14T09:18:33;4.97;;;1.80;;
81952;SDS011;71454;55.476;14.282;2023-12-14T09:20:59;6.00;;;1.60;;
81952;SDS011;71454;55.476;14.282;2023-12-14T09:23:25;5.15;;;1.60;;
81952;SDS011;71454;55.476;14.282;2023-12-14T09:25:50;5.03;;;1.65;;
81952;SDS011;71454;55.476;14.282;2023-12-14T09:28:15;6.65;;;1.60;;
81952;SDS011;71454;55.476;14.282;2023-12-14T09:30:41;6.63;;;1.65;;
81952;SDS011;71454;55.476;14.282;2023-12-14T09:33:06;9.77;;;3.08;;
81952;SDS011;71454;55.476;14.282;2023-12-14T09:35:33;16.83;;;4.43;;
81952;SDS011;71454;55.476;14.282;2023-12-14T09:38:00;16.58;;;3.85;;
81952;SDS011;71454;55.476;14.282;2023-12-14T09:40:26;13.77;;;4.95;;
81952;SDS011;71454;55.476;14.282;2023-12-14T09:42:51;18.60;;;5.20;;
81952;SDS011;71454;55.476;14.282;2023-12-14T09:45:17;30.52;;;10.52;;
81952;SDS011;71454;55.476;14.282;2023-12-14T09:47:42;10.57;;;3.40;;
81952;SDS011;71454;55.476;14.282;2023-12-14T09:50:09;10.15;;;3.88;;
81952;SDS011;71454;55.476;14.282;2023-12-14T09:52:35;10.07;;;3.72;;
81952;SDS011;71454;55.476;14.282;2023-12-14T09:55:00;7.43;;;2.50;;
81952;SDS011;71454;55.476;14.282;2023-12-14T09:57:25;9.55;;;3.83;;
81952;SDS011;71454;55.476;14.282;2023-12-14T09:59:52;8.90;;;3.30;;
81952;SDS011;71454;55.476;14.282;2023-12-14T10:02:17;9.90;;;3.28;;
81952;SDS011;71454;55.476;14.282;2023-12-14T10:04:43;6.27;;;2.43;;
81952;SDS011;71454;55.476;14.282;2023-12-14T10:07:08;7.22;;;2.47;;
81952;SDS011;71454;55.476;14.282;2023-12-14T10:09:34;9.40;;;3.67;;
81952;SDS011;71454;55.476;14.282;2023-12-14T10:12:02;5.90;;;1.80;;
81952;SDS011;71454;55.476;14.282;2023-12-14T10:14:28;6.63;;;2.05;;
81952;SDS011;71454;55.476;14.282;2023-12-14T10:16:54;6.13;;;1.98;;
81952;SDS011;71454;55.476;14.282;2023-12-14T10:19:20;7.88;;;2.80;;
81952;SDS011;71454;55.476;14.282;2023-12-14T10:21:46;9.38;;;2.60;;
81952;SDS011;71454;55.476;14.282;2023-12-14T10:24:12;5.47;;;2.13;;
81952;SDS011;71454;55.476;14.282;2023-12-14T10:26:37;5.97;;;2.20;;
81952;SDS011;71454;55.476;14.282;2023-12-14T10:29:03;7.80;;;3.00;;
81952;SDS011;71454;55.476;14.282;2023-12-14T10:31:30;5.88;;;2.03;;
81952;SDS011;71454;55.476;14.282;2023-12-14T10:33:55;6.47;;;2.20;;
81952;SDS011;71454;55.476;14.282;2023-12-14T10:36:24;6.33;;;2.50;;
81952;SDS011;71454;55.476;14.282;2023-12-14T10:38:53;7.45;;;2.47;;
81952;SDS011;71454;55.476;14.282;2023-12-14T10:41:20;6.95;;;2.60;;
81952;SDS011;71454;55.476;14.282;2023-12-14T10:43:46;6.22;;;2.05;;
81952;SDS011;71454;55.476;14.282;2023-12-14T10:46:12;8.15;;;2.53;;
81952;SDS011;71454;55.476;14.282;2023-12-14T10:48:38;6.95;;;2.47;;
81952;SDS011;71454;55.476;14.282;2023-12-14T10:51:07;8.80;;;2.33;;
81952;SDS011;71454;55.476;14.282;2023-12-14T10:53:34;6.22;;;2.50;;
81952;SDS011;71454;55.476;14.282;2023-12-14T10:56:01;6.88;;;1.67;;
81952;SDS011;71454;55.476;14.282;2023-12-14T10:58:28;7.07;;;2.47;;
81952;SDS011;71454;55.476;14.282;2023-12-14T11:01:11;7.18;;;2.22;;
81952;SDS011;71454;55.476;14.282;2023-12-14T11:03:39;7.40;;;2.25;;
81952;SDS011;71454;55.476;14.282;2023-12-14T11:06:15;6.45;;;2.00;;
81952;SDS011;71454;55.476;14.282;2023-12-14T11:08:44;7.70;;;2.30;;
81952;SDS011;71454;55.476;14.282;2023-12-14T11:11:10;9.02;;;3.38;;
81952;SDS011;71454;55.476;14.282;2023-12-14T11:13:37;7.40;;;2.58;;
81952;SDS011;71454;55.476;14.282;2023-12-14T11:16:04;6.65;;;2.17;;
81952;SDS011;71454;55.476;14.282;2023-12-14T11:18:29;7.78;;;2.50;;
81952;SDS011;71454;55.476;14.282;2023-12-14T11:20:58;5.55;;;2.00;;
81952;SDS011;71454;55.476;14.282;2023-12-14T11:25:57;8.90;;;2.50;;
81952;SDS011;71454;55.476;14.282;2023-12-14T11:28:22;7.35;;;2.35;;
81952;SDS011;71454;55.476;14.282;2023-12-14T11:30:47;6.78;;;2.83;;
81952;SDS011;71454;55.476;14.282;2023-12-14T11:33:13;7.80;;;2.70;;
81952;SDS011;71454;55.476;14.282;2023-12-14T11:35:39;6.07;;;2.25;;
81952;SDS011;71454;55.476;14.282;2023-12-14T11:38:04;7.13;;;2.20;;
81952;SDS011;71454;55.476;14.282;2023-12-14T11:40:35;8.52;;;2.83;;
81952;SDS011;71454;55.476;14.282;2023-12-14T11:43:01;5.78;;;2.30;;
81952;SDS011;71454;55.476;14.282;2023-12-14T11:45:31;8.18;;;2.75;;
81952;SDS011;71454;55.476;14.282;2023-12-14T11:47:57;8.25;;;2.55;;
81952;SDS011;71454;55.476;14.282;2023-12-14T11:50:22;7.83;;;2.27;;
81952;SDS011;71454;55.476;14.282;2023-12-14T11:52:48;6.65;;;2.00;;
81952;SDS011;71454;55.476;14.282;2023-12-14T11:55:14;6.53;;;2.30;;
81952;SDS011;71454;55.476;14.282;2023-12-14T11:57:39;7.05;;;2.45;;
81952;SDS011;71454;55.476;14.282;2023-12-14T12:00:05;6.97;;;2.05;;
81952;SDS011;71454;55.476;14.282;2023-12-14T12:02:32;7.93;;;2.42;;
81952;SDS011;71454;55.476;14.282;2023-12-14T12:04:57;6.22;;;2.30;;
81952;SDS011;71454;55.476;14.282;2023-12-14T12:07:22;6.17;;;2.03;;
81952;SDS011;71454;55.476;14.282;2023-12-14T12:09:47;5.30;;;1.93;;
81952;SDS011;71454;55.476;14.282;2023-12-14T12:12:13;6.82;;;2.70;;
81952;SDS011;71454;55.476;14.282;2023-12-14T12:14:38;6.87;;;2.50;;
81952;SDS011;71454;55.476;14.282;2023-12-14T12:17:04;8.40;;;2.33;;
81952;SDS011;71454;55.476;14.282;2023-12-14T12:19:33;5.75;;;2.08;;
81952;SDS011;71454;55.476;14.282;2023-12-14T12:21:59;6.32;;;2.10;;
81952;SDS011;71454;55.476;14.282;2023-12-14T12:24:25;6.43;;;2.22;;
81952;SDS011;71454;55.476;14.282;2023-12-14T12:26:50;7.45;;;2.10;;
81952;SDS011;71454;55.476;14.282;2023-12-14T12:29:15;4.78;;;1.73;;
81952;SDS011;71454;55.476;14.282;2023-12-14T12:31:41;6.20;;;2.03;;
81952;SDS011;71454;55.476;14.282;2023-12-14T12:34:07;5.90;;;1.77;;
81952;SDS011;71454;55.476;14.282;2023-12-14T12:36:33;5.57;;;1.90;;
81952;SDS011;71454;55.476;14.282;2023-12-14T12:38:58;7.10;;;2.22;;
81952;SDS011;71454;55.476;14.282;2023-12-14T12:41:23;5.80;;;1.97;;
81952;SDS011;71454;55.476;14.282;2023-12-14T12:43:49;6.28;;;1.98;;
81952;SDS011;71454;55.476;14.282;2023-12-14T12:46:14;5.63;;;1.93;;
81952;SDS011;71454;55.476;14.282;2023-12-14T12:48:39;7.77;;;2.67;;
81952;SDS011;71454;55.476;14.282;2023-12-14T12:51:05;7.47;;;2.60;;
81952;SDS011;71454;55.476;14.282;2023-12-14T12:53:30;6.05;;;1.85;;
81952;SDS011;71454;55.476;14.282;2023-12-14T12:55:55;5.82;;;2.00;;
81952;SDS011;71454;55.476;14.282;2023-12-14T12:58:21;6.97;;;2.15;;
81952;SDS011;71454;55.476;14.282;2023-12-14T13:00:46;5.65;;;1.70;;
81952;SDS011;71454;55.476;14.282;2023-12-14T13:03:11;5.40;;;1.70;;
81952;SDS011;71454;55.476;14.282;2023-12-14T13:05:37;5.60;;;1.80;;
81952;SDS011;71454;55.476;14.282;2023-12-14T13:08:03;6.85;;;1.90;;
81952;SDS011;71454;55.476;14.282;2023-12-14T13:10:28;6.45;;;1.63;;
81952;SDS011;71454;55.476;14.282;2023-12-14T13:12:54;5.68;;;1.77;;
81952;SDS011;71454;55.476;14.282;2023-12-14T13:15:19;5.80;;;1.77;;
81952;SDS011;71454;55.476;14.282;2023-12-14T13:17:44;5.83;;;2.20;;
81952;SDS011;71454;55.476;14.282;2023-12-14T13:20:09;5.25;;;1.73;;
81952;SDS011;71454;55.476;14.282;2023-12-14T13:22:35;6.82;;;1.75;;
81952;SDS011;71454;55.476;14.282;2023-12-14T13:25:00;6.70;;;2.40;;
81952;SDS011;71454;55.476;14.282;2023-12-14T13:27:25;6.38;;;2.10;;
81952;SDS011;71454;55.476;14.282;2023-12-14T13:29:51;6.50;;;2.40;;
81952;SDS011;71454;55.476;14.282;2023-12-14T13:32:16;6.05;;;1.90;;
81952;SDS011;71454;55.476;14.282;2023-12-14T13:34:41;6.47;;;2.00;;
81952;SDS011;71454;55.476;14.282;2023-12-14T13:37:07;4.80;;;1.70;;
81952;SDS011;71454;55.476;14.282;2023-12-14T13:39:34;5.80;;;1.85;;
81952;SDS011;71454;55.476;14.282;2023-12-14T13:42:03;8.05;;;2.20;;
81952;SDS011;71454;55.476;14.282;2023-12-14T13:44:28;5.93;;;1.77;;
81952;SDS011;71454;55.476;14.282;2023-12-14T13:46:53;7.63;;;2.35;;
81952;SDS011;71454;55.476;14.282;2023-12-14T13:49:19;6.03;;;2.00;;
81952;SDS011;71454;55.476;14.282;2023-12-14T13:51:44;6.88;;;2.13;;
81952;SDS011;71454;55.476;14.282;2023-12-14T13:54:09;6.93;;;2.13;;
81952;SDS011;71454;55.476;14.282;2023-12-14T13:56:34;5.77;;;2.30;;
81952;SDS011;71454;55.476;14.282;2023-12-14T13:59:00;7.00;;;2.20;;
81952;SDS011;71454;55.476;14.282;2023-12-14T14:01:25;7.03;;;2.00;;
81952;SDS011;71454;55.476;14.282;2023-12-14T14:03:51;6.65;;;2.08;;
81952;SDS011;71454;55.476;14.282;2023-12-14T14:06:16;6.45;;;2.20;;
81952;SDS011;71454;55.476;14.282;2023-12-14T14:08:41;6.57;;;2.33;;
81952;SDS011;71454;55.476;14.282;2023-12-14T14:11:07;6.40;;;2.28;;
81952;SDS011;71454;55.476;14.282;2023-12-14T14:13:32;9.50;;;3.00;;
81952;SDS011;71454;55.476;14.282;2023-12-14T14:15:58;9.73;;;3.15;;
81952;SDS011;71454;55.476;14.282;2023-12-14T14:18:24;9.27;;;3.15;;
81952;SDS011;71454;55.476;14.282;2023-12-14T14:20:49;8.45;;;3.05;;
81952;SDS011;71454;55.476;14.282;2023-12-14T14:23:15;9.60;;;3.00;;
81952;SDS011;71454;55.476;14.282;2023-12-14T14:25:40;7.65;;;3.05;;